Hovedside
METAR-TAF:

METAR-TAF

Lufthavner :

Kärdla lufthavn

Kärdla, Estland

breddegrad: 58-59N, lengdegrad: 022-49E, høyde over havet: 5 m

Gjeldene værobservasjon

Denne rapporten ble laget for 8 timer og 4 minutter siden, klokken 15:50 UTC
Vind 7 kt fra Øst
Temperatur 1°C
Luftfuktighet 86%
Trykk 1031 hPa
Sikt 10 km eller mer
Overskyet i en høyde av 2700 ft

METAR: EEKA 131550Z 08007KT 9999 OVC027 01/M01 Q1031

Tid: 01:54 (23:54 UTC)

Varsel

Denne rapporten ble laget for 10 timer og 54 minutter siden, klokken 13:00 UTC
Varsel gyldig fra 13. klokken 14 UTC til 13. klokken 20 UTC
Vind 10 kt fra Øst
Sikt 10 km eller mer
Overskyet i en høyde av 1200 ft
Midlertidig
fra 13. klokken 14 UTC til 13. klokken 18 UTC
Sikt: 4000 m
Brutte skyer i en høyde av 600 ft
Brutte skyer i en høyde av 1500 ft
snø

TAF: EEKA 131300Z 1314/1320 08010KT 9999 OVC012 TEMPO 1314/1318 4000 SN BKN006 BKN015

Værobservasjoner og værvarsel for over 4000 flyplasser (METAR- og TAF-rapporter).

Tilgjengelige stasjoner er representert av de røde og gule prikkene på kartet.

Hold musepekeren over prikken for å se navnet på stasjonen.

Klikk så for å se værobservasjoner og -varsler.

For å forandre kartet kan du klikke på den grønne knappen med svart kryss for å zoome inn, på den grønne knappen med strek for å zoome ut, eller på de grønne pilene for å se tilstøtende kart.


METAR-TAF: